Terminal Aerodrome Forecast
Issued by NWS Quad Cities IA IL

Home | Current Version | Previous Version | Text Only | Print | Product List | Glossary On
Versions: 1 2 3 4 5 6 7 8 9 10 11 12 13 14 15
000
FTUS43 KDVN 040423 AAA
TAFMLI
TAF AMD
KMLI 040423Z 0404/0424 27013KT P6SM BKN080
     FM040500 23009KT P6SM VCTS BKN060CB
      TEMPO 0405/0406 5SM -SHRA BKN040
     FM040700 30009KT P6SM BKN100
     FM041000 33011KT P6SM SKC=

USA.gov is the U.S. government's official web portal to all federal, state and local government web resources and services.